Triboji Beach, Iowa
Current Conditions -  °F | °C
As of 9:53 AM on Saturday 25 Oct 2014 (Local Time) from KMJQ Reporting Station
Clear Clear  
Wind Chill: 55°   Ceiling: Unl
Heat Index: 55°   Visibility: 10mi
Dew Point: 34°   Wind: 8mph
Humidity: 44%   Direction: 330°NNW
Pressure: 30.12"   Gusts: NA
Location:  43.4265°N, 95.1547°W
Report Text: KMJQ 251453Z AUTO 33007KT 10SM CLR 13/01 A3012 RMK AO2
Loading
Personal Weather Stations






























Interactive Weather Map
Tropical Storm Tracking
New forecast layout! Learn more

10-Day Weather Forecast

Advertisements
Track Severe Weather on mobile